sensor_id;sensor_type;location;lat;lon;timestamp;pressure;altitude;pressure_sealevel;temperature;humidity
2401;BME280;1211;43.200;27.914;2023-04-28T00:00:51;101353.34;;;14.71;55.96
2401;BME280;1211;43.200;27.914;2023-04-28T00:03:18;101364.72;;;14.37;56.52
2401;BME280;1211;43.200;27.914;2023-04-28T00:05:45;101356.84;;;14.80;56.42
2401;BME280;1211;43.200;27.914;2023-04-28T00:08:13;101364.19;;;14.64;56.33
2401;BME280;1211;43.200;27.914;2023-04-28T00:10:40;101365.16;;;14.80;55.81
2401;BME280;1211;43.200;27.914;2023-04-28T00:13:06;101367.91;;;14.68;56.12
2401;BME280;1211;43.200;27.914;2023-04-28T00:15:35;101365.75;;;14.53;56.64
2401;BME280;1211;43.200;27.914;2023-04-28T00:18:01;101365.75;;;14.74;56.40
2401;BME280;1211;43.200;27.914;2023-04-28T00:20:28;101357.50;;;14.45;57.38
2401;BME280;1211;43.200;27.914;2023-04-28T00:22:54;101353.88;;;13.73;58.71
2401;BME280;1211;43.200;27.914;2023-04-28T00:25:21;101349.13;;;14.03;58.42
2401;BME280;1211;43.200;27.914;2023-04-28T00:27:48;101362.97;;;14.53;58.12
2401;BME280;1211;43.200;27.914;2023-04-28T00:30:14;101358.97;;;14.83;57.17
2401;BME280;1211;43.200;27.914;2023-04-28T00:32:42;101368.22;;;14.88;57.43
2401;BME280;1211;43.200;27.914;2023-04-28T00:35:09;101375.06;;;14.69;57.67
2401;BME280;1211;43.200;27.914;2023-04-28T00:37:35;101374.84;;;14.74;57.77
2401;BME280;1211;43.200;27.914;2023-04-28T00:40:02;101382.78;;;14.64;57.68
2401;BME280;1211;43.200;27.914;2023-04-28T00:42:29;101377.16;;;14.01;58.32
2401;BME280;1211;43.200;27.914;2023-04-28T00:44:56;101378.03;;;14.64;58.31
2401;BME280;1211;43.200;27.914;2023-04-28T00:47:23;101382.44;;;14.65;58.66
2401;BME280;1211;43.200;27.914;2023-04-28T00:49:51;101374.22;;;14.57;58.46
2401;BME280;1211;43.200;27.914;2023-04-28T00:52:18;101374.78;;;14.83;57.18
2401;BME280;1211;43.200;27.914;2023-04-28T00:54:44;101373.03;;;14.78;58.60
2401;BME280;1211;43.200;27.914;2023-04-28T00:57:11;101369.44;;;14.78;58.55
2401;BME280;1211;43.200;27.914;2023-04-28T00:59:38;101376.50;;;14.55;58.61
2401;BME280;1211;43.200;27.914;2023-04-28T01:02:05;101375.81;;;14.37;59.29
2401;BME280;1211;43.200;27.914;2023-04-28T01:04:32;101372.97;;;14.66;58.57
2401;BME280;1211;43.200;27.914;2023-04-28T01:07:00;101367.16;;;14.59;57.99
2401;BME280;1211;43.200;27.914;2023-04-28T01:09:28;101377.38;;;14.47;58.90
2401;BME280;1211;43.200;27.914;2023-04-28T01:11:54;101384.72;;;14.22;59.82
2401;BME280;1211;43.200;27.914;2023-04-28T01:14:22;101382.78;;;14.43;60.36
2401;BME280;1211;43.200;27.914;2023-04-28T01:16:49;101387.72;;;14.29;59.74
2401;BME280;1211;43.200;27.914;2023-04-28T01:19:17;101376.09;;;14.15;59.94
2401;BME280;1211;43.200;27.914;2023-04-28T01:21:45;101386.03;;;14.16;60.72
2401;BME280;1211;43.200;27.914;2023-04-28T01:24:13;101384.34;;;14.23;60.17
2401;BME280;1211;43.200;27.914;2023-04-28T01:26:40;101377.84;;;13.60;62.50
2401;BME280;1211;43.200;27.914;2023-04-28T01:29:07;101380.91;;;13.76;61.32
2401;BME280;1211;43.200;27.914;2023-04-28T01:31:33;101383.00;;;14.09;61.40
2401;BME280;1211;43.200;27.914;2023-04-28T01:34:00;101378.28;;;13.71;61.74
2401;BME280;1211;43.200;27.914;2023-04-28T01:36:27;101375.88;;;13.99;60.91
2401;BME280;1211;43.200;27.914;2023-04-28T01:38:53;101381.88;;;14.01;61.25
2401;BME280;1211;43.200;27.914;2023-04-28T01:41:21;101379.44;;;13.99;60.47
2401;BME280;1211;43.200;27.914;2023-04-28T01:43:48;101375.72;;;13.95;61.08
2401;BME280;1211;43.200;27.914;2023-04-28T01:46:16;101386.75;;;13.28;61.91
2401;BME280;1211;43.200;27.914;2023-04-28T01:48:42;101386.38;;;13.85;61.59
2401;BME280;1211;43.200;27.914;2023-04-28T01:51:09;101380.13;;;13.96;60.88
2401;BME280;1211;43.200;27.914;2023-04-28T01:53:36;101373.63;;;13.92;60.33
2401;BME280;1211;43.200;27.914;2023-04-28T01:56:02;101383.19;;;13.74;61.56
2401;BME280;1211;43.200;27.914;2023-04-28T01:58:31;101381.31;;;14.16;60.18
2401;BME280;1211;43.200;27.914;2023-04-28T02:00:57;101378.78;;;14.02;60.42
2401;BME280;1211;43.200;27.914;2023-04-28T02:03:24;101378.97;;;13.97;60.79
2401;BME280;1211;43.200;27.914;2023-04-28T02:05:52;101380.25;;;14.00;60.22
2401;BME280;1211;43.200;27.914;2023-04-28T02:08:18;101382.22;;;13.70;61.53
2401;BME280;1211;43.200;27.914;2023-04-28T02:10:45;101380.66;;;13.52;61.10
2401;BME280;1211;43.200;27.914;2023-04-28T02:13:11;101374.16;;;13.86;59.52
2401;BME280;1211;43.200;27.914;2023-04-28T02:15:40;101381.81;;;13.42;61.33
2401;BME280;1211;43.200;27.914;2023-04-28T02:18:07;101390.13;;;13.51;61.78
2401;BME280;1211;43.200;27.914;2023-04-28T02:20:33;101386.22;;;13.52;61.37
2401;BME280;1211;43.200;27.914;2023-04-28T02:23:00;101383.66;;;13.76;60.57
2401;BME280;1211;43.200;27.914;2023-04-28T02:25:26;101383.19;;;13.66;60.40
2401;BME280;1211;43.200;27.914;2023-04-28T02:27:53;101387.84;;;13.53;61.03
2401;BME280;1211;43.200;27.914;2023-04-28T02:30:20;101385.47;;;13.72;61.01
2401;BME280;1211;43.200;27.914;2023-04-28T02:32:48;101390.81;;;13.39;60.07
2401;BME280;1211;43.200;27.914;2023-04-28T02:35:15;101395.69;;;13.34;60.71
2401;BME280;1211;43.200;27.914;2023-04-28T02:37:42;101395.66;;;13.42;60.99
2401;BME280;1211;43.200;27.914;2023-04-28T02:40:09;101398.19;;;13.18;62.36
2401;BME280;1211;43.200;27.914;2023-04-28T02:42:35;101404.19;;;13.03;61.92
2401;BME280;1211;43.200;27.914;2023-04-28T02:45:02;101405.50;;;13.05;63.24
2401;BME280;1211;43.200;27.914;2023-04-28T02:47:29;101404.19;;;13.03;63.82
2401;BME280;1211;43.200;27.914;2023-04-28T02:49:57;101406.66;;;13.13;64.31
2401;BME280;1211;43.200;27.914;2023-04-28T02:52:24;101406.94;;;13.03;65.09
2401;BME280;1211;43.200;27.914;2023-04-28T02:54:50;101409.88;;;13.06;64.78
2401;BME280;1211;43.200;27.914;2023-04-28T02:57:21;101418.00;;;13.20;64.52
2401;BME280;1211;43.200;27.914;2023-04-28T02:59:47;101412.66;;;13.24;63.39
2401;BME280;1211;43.200;27.914;2023-04-28T03:02:14;101414.28;;;12.90;62.90
2401;BME280;1211;43.200;27.914;2023-04-28T03:04:41;101421.13;;;13.01;63.77
2401;BME280;1211;43.200;27.914;2023-04-28T03:07:09;101422.91;;;12.89;64.34
2401;BME280;1211;43.200;27.914;2023-04-28T03:09:36;101430.22;;;12.85;64.71
2401;BME280;1211;43.200;27.914;2023-04-28T03:12:02;101422.44;;;12.78;64.66
2401;BME280;1211;43.200;27.914;2023-04-28T03:14:29;101432.66;;;12.86;64.70
2401;BME280;1211;43.200;27.914;2023-04-28T03:16:56;101434.63;;;12.86;64.61
2401;BME280;1211;43.200;27.914;2023-04-28T03:19:23;101434.78;;;12.89;64.46
2401;BME280;1211;43.200;27.914;2023-04-28T03:21:50;101436.91;;;12.75;65.36
2401;BME280;1211;43.200;27.914;2023-04-28T03:24:18;101446.97;;;12.97;65.94
2401;BME280;1211;43.200;27.914;2023-04-28T03:26:45;101448.13;;;12.70;67.30
2401;BME280;1211;43.200;27.914;2023-04-28T03:29:11;101455.88;;;12.42;67.30
2401;BME280;1211;43.200;27.914;2023-04-28T03:31:38;101457.72;;;12.81;67.05
2401;BME280;1211;43.200;27.914;2023-04-28T03:34:05;101462.41;;;12.55;66.53
2401;BME280;1211;43.200;27.914;2023-04-28T03:36:31;101460.50;;;12.90;65.71
2401;BME280;1211;43.200;27.914;2023-04-28T03:38:58;101467.63;;;12.82;64.86
2401;BME280;1211;43.200;27.914;2023-04-28T03:41:26;101467.81;;;12.94;65.07
2401;BME280;1211;43.200;27.914;2023-04-28T03:43:53;101471.38;;;13.03;64.51
2401;BME280;1211;43.200;27.914;2023-04-28T03:46:20;101476.94;;;13.12;64.55
2401;BME280;1211;43.200;27.914;2023-04-28T03:48:48;101473.69;;;13.18;63.92
2401;BME280;1211;43.200;27.914;2023-04-28T03:51:14;101480.19;;;13.23;63.84
2401;BME280;1211;43.200;27.914;2023-04-28T03:53:41;101477.06;;;12.98;62.84
2401;BME280;1211;43.200;27.914;2023-04-28T03:56:08;101488.47;;;13.23;63.38
2401;BME280;1211;43.200;27.914;2023-04-28T03:58:36;101498.38;;;13.32;62.06
2401;BME280;1211;43.200;27.914;2023-04-28T04:01:03;101490.25;;;13.36;61.95
2401;BME280;1211;43.200;27.914;2023-04-28T04:03:29;101495.44;;;13.11;62.18
2401;BME280;1211;43.200;27.914;2023-04-28T04:05:56;101494.34;;;13.30;61.69
2401;BME280;1211;43.200;27.914;2023-04-28T04:08:24;101490.56;;;13.43;61.38
2401;BME280;1211;43.200;27.914;2023-04-28T04:10:50;101495.28;;;13.51;60.98
2401;BME280;1211;43.200;27.914;2023-04-28T04:13:18;101492.69;;;13.11;61.59
2401;BME280;1211;43.200;27.914;2023-04-28T04:15:47;101499.50;;;12.71;63.01
2401;BME280;1211;43.200;27.914;2023-04-28T04:18:14;101485.72;;;13.23;62.57
2401;BME280;1211;43.200;27.914;2023-04-28T04:20:41;101502.53;;;13.81;61.14
2401;BME280;1211;43.200;27.914;2023-04-28T04:23:07;101497.06;;;14.11;60.06
2401;BME280;1211;43.200;27.914;2023-04-28T04:25:34;101492.25;;;14.58;57.95
2401;BME280;1211;43.200;27.914;2023-04-28T04:28:01;101496.28;;;14.90;57.76
2401;BME280;1211;43.200;27.914;2023-04-28T04:30:27;101493.03;;;14.67;56.24
2401;BME280;1211;43.200;27.914;2023-04-28T04:32:55;101494.38;;;15.02;56.54
2401;BME280;1211;43.200;27.914;2023-04-28T04:35:22;101499.25;;;14.84;55.69
2401;BME280;1211;43.200;27.914;2023-04-28T04:37:49;101509.34;;;14.89;56.55
2401;BME280;1211;43.200;27.914;2023-04-28T04:40:16;101504.53;;;14.77;55.75
2401;BME280;1211;43.200;27.914;2023-04-28T04:42:42;101494.19;;;15.40;55.96
2401;BME280;1211;43.200;27.914;2023-04-28T04:45:09;101498.31;;;15.88;54.49
2401;BME280;1211;43.200;27.914;2023-04-28T04:47:36;101498.19;;;16.08;53.47
2401;BME280;1211;43.200;27.914;2023-04-28T04:50:04;101498.53;;;16.07;53.39
2401;BME280;1211;43.200;27.914;2023-04-28T04:52:31;101496.00;;;16.02;52.96
2401;BME280;1211;43.200;27.914;2023-04-28T04:54:58;101494.38;;;16.13;53.51
2401;BME280;1211;43.200;27.914;2023-04-28T04:57:25;101495.59;;;17.28;49.81
2401;BME280;1211;43.200;27.914;2023-04-28T04:59:52;101493.59;;;17.13;47.89
2401;BME280;1211;43.200;27.914;2023-04-28T05:02:19;101494.41;;;17.14;46.33
2401;BME280;1211;43.200;27.914;2023-04-28T05:04:46;101492.97;;;17.48;44.94
2401;BME280;1211;43.200;27.914;2023-04-28T05:07:14;101502.25;;;18.27;44.86
2401;BME280;1211;43.200;27.914;2023-04-28T05:09:41;101510.69;;;18.15;44.04
2401;BME280;1211;43.200;27.914;2023-04-28T05:12:08;101507.91;;;18.46;43.27
2401;BME280;1211;43.200;27.914;2023-04-28T05:14:34;101509.47;;;18.59;42.10
2401;BME280;1211;43.200;27.914;2023-04-28T05:17:01;101504.53;;;19.26;42.22
2401;BME280;1211;43.200;27.914;2023-04-28T05:19:28;101500.09;;;19.83;41.26
2401;BME280;1211;43.200;27.914;2023-04-28T05:21:55;101509.53;;;19.74;40.97
2401;BME280;1211;43.200;27.914;2023-04-28T05:24:23;101503.56;;;20.22;40.35
2401;BME280;1211;43.200;27.914;2023-04-28T05:26:55;101508.59;;;19.67;40.44
2401;BME280;1211;43.200;27.914;2023-04-28T05:29:23;101511.22;;;19.60;41.02
2401;BME280;1211;43.200;27.914;2023-04-28T05:31:50;101504.44;;;19.80;39.76
2401;BME280;1211;43.200;27.914;2023-04-28T05:34:16;101510.16;;;20.10;40.50
2401;BME280;1211;43.200;27.914;2023-04-28T05:36:43;101513.72;;;20.56;38.86
2401;BME280;1211;43.200;27.914;2023-04-28T05:39:10;101514.56;;;19.46;39.67
2401;BME280;1211;43.200;27.914;2023-04-28T05:41:38;101505.38;;;20.33;39.56
2401;BME280;1211;43.200;27.914;2023-04-28T05:44:04;101495.53;;;20.95;38.62
2401;BME280;1211;43.200;27.914;2023-04-28T05:46:31;101513.03;;;21.49;37.93
2401;BME280;1211;43.200;27.914;2023-04-28T05:48:58;101508.44;;;21.04;37.63
2401;BME280;1211;43.200;27.914;2023-04-28T05:51:24;101516.25;;;21.51;37.32
2401;BME280;1211;43.200;27.914;2023-04-28T05:53:52;101509.50;;;21.22;37.17
2401;BME280;1211;43.200;27.914;2023-04-28T05:56:19;101512.66;;;21.17;37.58
2401;BME280;1211;43.200;27.914;2023-04-28T05:58:47;101515.31;;;21.10;37.18
2401;BME280;1211;43.200;27.914;2023-04-28T06:01:14;101520.19;;;21.79;36.50
2401;BME280;1211;43.200;27.914;2023-04-28T06:03:41;101510.53;;;21.77;36.32
2401;BME280;1211;43.200;27.914;2023-04-28T06:06:09;101514.63;;;21.46;36.10
2401;BME280;1211;43.200;27.914;2023-04-28T06:08:36;101509.34;;;21.11;36.33
2401;BME280;1211;43.200;27.914;2023-04-28T06:11:02;101508.50;;;21.07;36.38
2401;BME280;1211;43.200;27.914;2023-04-28T06:13:29;101511.75;;;21.43;35.96
2401;BME280;1211;43.200;27.914;2023-04-28T06:15:57;101520.63;;;21.48;36.30
2401;BME280;1211;43.200;27.914;2023-04-28T06:18:24;101523.47;;;22.26;35.01
2401;BME280;1211;43.200;27.914;2023-04-28T06:20:51;101517.91;;;22.33;34.87
2401;BME280;1211;43.200;27.914;2023-04-28T06:23:17;101527.94;;;22.34;34.67
2401;BME280;1211;43.200;27.914;2023-04-28T06:25:44;101528.41;;;22.43;33.51
2401;BME280;1211;43.200;27.914;2023-04-28T06:28:11;101517.22;;;21.99;34.28
2401;BME280;1211;43.200;27.914;2023-04-28T06:30:39;101519.03;;;22.25;34.45
2401;BME280;1211;43.200;27.914;2023-04-28T06:33:07;101526.56;;;22.65;33.75
2401;BME280;1211;43.200;27.914;2023-04-28T06:35:33;101516.97;;;23.38;33.02
2401;BME280;1211;43.200;27.914;2023-04-28T06:38:03;101522.69;;;22.80;33.32
2401;BME280;1211;43.200;27.914;2023-04-28T06:40:30;101522.03;;;22.46;33.15
2401;BME280;1211;43.200;27.914;2023-04-28T06:42:57;101529.88;;;21.89;33.59
2401;BME280;1211;43.200;27.914;2023-04-28T06:45:23;101526.69;;;21.87;33.50
2401;BME280;1211;43.200;27.914;2023-04-28T06:47:50;101526.66;;;22.75;33.06
2401;BME280;1211;43.200;27.914;2023-04-28T06:50:21;101529.25;;;22.47;33.32
2401;BME280;1211;43.200;27.914;2023-04-28T06:52:48;101524.16;;;23.25;32.24
2401;BME280;1211;43.200;27.914;2023-04-28T06:55:14;101527.88;;;23.50;31.88
2401;BME280;1211;43.200;27.914;2023-04-28T06:57:42;101534.00;;;23.77;31.93
2401;BME280;1211;43.200;27.914;2023-04-28T07:00:09;101528.78;;;23.97;31.40
2401;BME280;1211;43.200;27.914;2023-04-28T07:02:35;101519.53;;;23.82;31.83
2401;BME280;1211;43.200;27.914;2023-04-28T07:05:02;101528.84;;;24.25;31.05
2401;BME280;1211;43.200;27.914;2023-04-28T07:07:31;101530.81;;;24.14;31.20
2401;BME280;1211;43.200;27.914;2023-04-28T07:09:59;101521.22;;;24.18;30.89
2401;BME280;1211;43.200;27.914;2023-04-28T07:12:35;101506.22;;;23.54;31.44
2401;BME280;1211;43.200;27.914;2023-04-28T07:15:02;101533.22;;;23.98;31.22
2401;BME280;1211;43.200;27.914;2023-04-28T07:17:32;101509.56;;;24.27;31.05
2401;BME280;1211;43.200;27.914;2023-04-28T07:19:59;101526.06;;;24.36;30.80
2401;BME280;1211;43.200;27.914;2023-04-28T07:22:25;101521.22;;;24.26;30.59
2401;BME280;1211;43.200;27.914;2023-04-28T07:24:54;101524.38;;;25.02;29.99
2401;BME280;1211;43.200;27.914;2023-04-28T07:27:20;101513.97;;;24.71;30.13
2401;BME280;1211;43.200;27.914;2023-04-28T07:29:47;101534.03;;;23.98;30.50
2401;BME280;1211;43.200;27.914;2023-04-28T07:32:14;101521.72;;;23.27;31.19
2401;BME280;1211;43.200;27.914;2023-04-28T07:34:40;101528.38;;;23.91;30.81
2401;BME280;1211;43.200;27.914;2023-04-28T07:37:07;101529.97;;;25.13;29.78
2401;BME280;1211;43.200;27.914;2023-04-28T07:39:36;101516.75;;;23.89;29.79
2401;BME280;1211;43.200;27.914;2023-04-28T07:42:06;101523.97;;;24.08;29.88
2401;BME280;1211;43.200;27.914;2023-04-28T07:44:33;101516.38;;;24.26;29.79
2401;BME280;1211;43.200;27.914;2023-04-28T07:47:00;101524.13;;;25.66;29.12
2401;BME280;1211;43.200;27.914;2023-04-28T07:49:28;101516.09;;;26.19;27.90
2401;BME280;1211;43.200;27.914;2023-04-28T07:51:54;101511.78;;;25.24;28.40
2401;BME280;1211;43.200;27.914;2023-04-28T07:54:21;101508.75;;;24.58;28.41
2401;BME280;1211;43.200;27.914;2023-04-28T07:56:48;101519.56;;;24.00;29.88
2401;BME280;1211;43.200;27.914;2023-04-28T07:59:17;101503.91;;;24.31;29.76
2401;BME280;1211;43.200;27.914;2023-04-28T08:01:44;101508.84;;;25.60;28.84
2401;BME280;1211;43.200;27.914;2023-04-28T08:04:10;101510.66;;;25.91;28.94
2401;BME280;1211;43.200;27.914;2023-04-28T08:06:37;101506.31;;;25.76;28.83
2401;BME280;1211;43.200;27.914;2023-04-28T08:09:04;101504.59;;;25.96;27.85
2401;BME280;1211;43.200;27.914;2023-04-28T08:11:31;101512.22;;;25.19;28.53
2401;BME280;1211;43.200;27.914;2023-04-28T08:13:58;101499.75;;;25.97;27.46
2401;BME280;1211;43.200;27.914;2023-04-28T08:16:29;101497.13;;;26.20;27.63
2401;BME280;1211;43.200;27.914;2023-04-28T08:18:56;101502.78;;;26.20;27.36
2401;BME280;1211;43.200;27.914;2023-04-28T08:21:22;101490.63;;;27.09;27.07
2401;BME280;1211;43.200;27.914;2023-04-28T08:23:50;101492.09;;;26.45;27.14
2401;BME280;1211;43.200;27.914;2023-04-28T08:26:16;101496.19;;;26.78;26.61
2401;BME280;1211;43.200;27.914;2023-04-28T08:28:43;101478.78;;;27.78;26.35
2401;BME280;1211;43.200;27.914;2023-04-28T08:31:10;101492.03;;;27.84;25.69
2401;BME280;1211;43.200;27.914;2023-04-28T08:33:38;101479.94;;;27.23;25.70
2401;BME280;1211;43.200;27.914;2023-04-28T08:36:08;101470.13;;;26.15;26.53
2401;BME280;1211;43.200;27.914;2023-04-28T08:38:36;101478.34;;;26.47;26.81
2401;BME280;1211;43.200;27.914;2023-04-28T08:41:02;101488.25;;;25.66;27.23
2401;BME280;1211;43.200;27.914;2023-04-28T08:43:31;101483.91;;;26.95;26.83
2401;BME280;1211;43.200;27.914;2023-04-28T08:45:58;101471.59;;;26.38;26.69
2401;BME280;1211;43.200;27.914;2023-04-28T08:48:26;101490.00;;;25.28;28.14
2401;BME280;1211;43.200;27.914;2023-04-28T08:50:56;101471.72;;;26.61;26.97
2401;BME280;1211;43.200;27.914;2023-04-28T08:53:23;101455.19;;;26.18;27.06
2401;BME280;1211;43.200;27.914;2023-04-28T08:55:51;101461.56;;;25.78;27.46
2401;BME280;1211;43.200;27.914;2023-04-28T08:58:21;101461.97;;;25.80;27.15
2401;BME280;1211;43.200;27.914;2023-04-28T09:00:48;101462.88;;;25.59;27.79
2401;BME280;1211;43.200;27.914;2023-04-28T09:03:15;101451.16;;;23.53;28.80
2401;BME280;1211;43.200;27.914;2023-04-28T09:05:42;101474.75;;;22.58;29.95
2401;BME280;1211;43.200;27.914;2023-04-28T09:08:10;101462.28;;;22.52;30.09
2401;BME280;1211;43.200;27.914;2023-04-28T09:10:37;101469.59;;;25.03;28.04
2401;BME280;1211;43.200;27.914;2023-04-28T09:13:04;101458.59;;;26.81;26.66
2401;BME280;1211;43.200;27.914;2023-04-28T09:15:31;101464.34;;;26.33;26.42
2401;BME280;1211;43.200;27.914;2023-04-28T09:17:58;101451.41;;;27.11;26.23
2401;BME280;1211;43.200;27.914;2023-04-28T09:20:26;101453.78;;;28.46;24.63
2401;BME280;1211;43.200;27.914;2023-04-28T09:22:53;101454.28;;;28.41;24.53
2401;BME280;1211;43.200;27.914;2023-04-28T09:25:22;101440.00;;;26.84;25.56
2401;BME280;1211;43.200;27.914;2023-04-28T09:27:50;101445.84;;;24.97;27.01
2401;BME280;1211;43.200;27.914;2023-04-28T09:30:17;101452.03;;;24.35;27.76
2401;BME280;1211;43.200;27.914;2023-04-28T09:32:44;101446.84;;;26.49;25.77
2401;BME280;1211;43.200;27.914;2023-04-28T09:35:11;101465.53;;;26.73;25.65
2401;BME280;1211;43.200;27.914;2023-04-28T09:37:38;101444.69;;;26.15;25.69
2401;BME280;1211;43.200;27.914;2023-04-28T09:40:07;101451.16;;;24.59;27.10
2401;BME280;1211;43.200;27.914;2023-04-28T09:42:38;101433.91;;;23.97;27.59
2401;BME280;1211;43.200;27.914;2023-04-28T09:45:06;101449.59;;;24.16;28.15
2401;BME280;1211;43.200;27.914;2023-04-28T09:47:33;101448.72;;;25.66;26.83
2401;BME280;1211;43.200;27.914;2023-04-28T09:50:01;101432.03;;;26.38;25.79
2401;BME280;1211;43.200;27.914;2023-04-28T09:52:28;101443.47;;;27.59;25.34
2401;BME280;1211;43.200;27.914;2023-04-28T09:54:56;101433.22;;;28.19;24.27
2401;BME280;1211;43.200;27.914;2023-04-28T09:57:23;101436.03;;;27.96;24.90
2401;BME280;1211;43.200;27.914;2023-04-28T09:59:52;101439.84;;;27.59;25.30
2401;BME280;1211;43.200;27.914;2023-04-28T10:02:19;101435.22;;;26.77;25.18
2401;BME280;1211;43.200;27.914;2023-04-28T10:04:47;101417.91;;;25.86;26.01
2401;BME280;1211;43.200;27.914;2023-04-28T10:07:14;101429.94;;;27.70;25.11
2401;BME280;1211;43.200;27.914;2023-04-28T10:09:41;101434.91;;;29.38;24.06
2401;BME280;1211;43.200;27.914;2023-04-28T10:12:11;101428.69;;;28.88;23.87
2401;BME280;1211;43.200;27.914;2023-04-28T10:14:38;101426.75;;;25.33;25.79
2401;BME280;1211;43.200;27.914;2023-04-28T10:17:07;101422.03;;;22.96;28.16
2401;BME280;1211;43.200;27.914;2023-04-28T10:19:34;101437.53;;;23.87;28.39
2401;BME280;1211;43.200;27.914;2023-04-28T10:22:05;101425.03;;;26.08;26.67
2401;BME280;1211;43.200;27.914;2023-04-28T10:24:43;101425.47;;;23.79;28.28
2401;BME280;1211;43.200;27.914;2023-04-28T10:27:15;101433.03;;;24.68;27.72
2401;BME280;1211;43.200;27.914;2023-04-28T10:29:42;101418.91;;;24.78;27.04
2401;BME280;1211;43.200;27.914;2023-04-28T10:32:21;101426.59;;;24.67;27.07
2401;BME280;1211;43.200;27.914;2023-04-28T10:34:50;101425.91;;;25.39;26.38
2401;BME280;1211;43.200;27.914;2023-04-28T10:37:17;101411.25;;;25.66;26.28
2401;BME280;1211;43.200;27.914;2023-04-28T10:45:14;101430.72;;;24.34;27.66
2401;BME280;1211;43.200;27.914;2023-04-28T10:48:03;101426.56;;;23.39;28.22
2401;BME280;1211;43.200;27.914;2023-04-28T10:50:30;101415.00;;;24.33;27.79
2401;BME280;1211;43.200;27.914;2023-04-28T10:52:57;101416.19;;;23.47;28.45
2401;BME280;1211;43.200;27.914;2023-04-28T10:55:28;101428.28;;;23.72;28.17
2401;BME280;1211;43.200;27.914;2023-04-28T11:00:42;101428.19;;;23.44;28.08
2401;BME280;1211;43.200;27.914;2023-04-28T11:03:12;101416.19;;;23.47;28.13
2401;BME280;1211;43.200;27.914;2023-04-28T11:08:50;101402.97;;;24.01;27.70
2401;BME280;1211;43.200;27.914;2023-04-28T11:11:17;101405.97;;;22.96;28.30
2401;BME280;1211;43.200;27.914;2023-04-28T11:13:45;101414.44;;;23.04;28.36
2401;BME280;1211;43.200;27.914;2023-04-28T11:16:15;101425.03;;;23.63;27.95
2401;BME280;1211;43.200;27.914;2023-04-28T11:21:31;101413.81;;;23.99;27.71
2401;BME280;1211;43.200;27.914;2023-04-28T11:23:58;101419.03;;;23.75;27.19
2401;BME280;1211;43.200;27.914;2023-04-28T11:26:25;101413.41;;;23.79;27.97
2401;BME280;1211;43.200;27.914;2023-04-28T11:28:53;101419.84;;;23.94;27.84
2401;BME280;1211;43.200;27.914;2023-04-28T11:31:21;101415.03;;;24.23;27.48
2401;BME280;1211;43.200;27.914;2023-04-28T11:33:50;101409.00;;;24.24;27.00
2401;BME280;1211;43.200;27.914;2023-04-28T11:36:24;101404.56;;;24.02;27.58
2401;BME280;1211;43.200;27.914;2023-04-28T11:38:53;101422.66;;;24.01;28.10
2401;BME280;1211;43.200;27.914;2023-04-28T11:41:20;101413.75;;;24.55;27.69
2401;BME280;1211;43.200;27.914;2023-04-28T11:43:48;101422.91;;;24.95;27.44
2401;BME280;1211;43.200;27.914;2023-04-28T11:46:15;101416.56;;;24.55;27.41
2401;BME280;1211;43.200;27.914;2023-04-28T11:48:42;101419.06;;;24.18;27.91
2401;BME280;1211;43.200;27.914;2023-04-28T11:51:08;101410.16;;;24.44;28.16
2401;BME280;1211;43.200;27.914;2023-04-28T11:53:41;101392.13;;;24.24;28.06
2401;BME280;1211;43.200;27.914;2023-04-28T11:56:10;101418.22;;;23.64;28.38
2401;BME280;1211;43.200;27.914;2023-04-28T11:58:37;101414.22;;;23.83;28.41
2401;BME280;1211;43.200;27.914;2023-04-28T12:01:08;101397.25;;;24.54;27.72
2401;BME280;1211;43.200;27.914;2023-04-28T12:03:44;101403.34;;;23.67;28.10
2401;BME280;1211;43.200;27.914;2023-04-28T12:06:11;101403.94;;;22.93;29.07
2401;BME280;1211;43.200;27.914;2023-04-28T12:08:38;101407.22;;;23.06;29.60
2401;BME280;1211;43.200;27.914;2023-04-28T12:11:07;101416.94;;;23.37;28.98
2401;BME280;1211;43.200;27.914;2023-04-28T12:13:36;101397.31;;;24.29;27.99
2401;BME280;1211;43.200;27.914;2023-04-28T12:16:03;101390.44;;;24.44;27.55
2401;BME280;1211;43.200;27.914;2023-04-28T12:18:31;101390.47;;;24.02;27.56
2401;BME280;1211;43.200;27.914;2023-04-28T12:20:57;101381.22;;;24.19;27.24
2401;BME280;1211;43.200;27.914;2023-04-28T12:23:28;101366.75;;;24.17;28.01
2401;BME280;1211;43.200;27.914;2023-04-28T12:25:55;101358.69;;;23.41;28.46
2401;BME280;1211;43.200;27.914;2023-04-28T12:28:22;101365.13;;;23.45;27.72
2401;BME280;1211;43.200;27.914;2023-04-28T12:31:01;101363.56;;;23.58;27.69
2401;BME280;1211;43.200;27.914;2023-04-28T12:33:28;101370.41;;;23.64;27.90
2401;BME280;1211;43.200;27.914;2023-04-28T12:35:56;101360.34;;;23.49;28.49
2401;BME280;1211;43.200;27.914;2023-04-28T12:38:22;101358.31;;;24.17;27.99
2401;BME280;1211;43.200;27.914;2023-04-28T12:40:49;101378.44;;;23.66;28.39
2401;BME280;1211;43.200;27.914;2023-04-28T12:43:16;101357.13;;;23.75;28.87
2401;BME280;1211;43.200;27.914;2023-04-28T12:45:43;101374.81;;;23.65;28.41
2401;BME280;1211;43.200;27.914;2023-04-28T12:48:11;101372.00;;;23.76;28.37
2401;BME280;1211;43.200;27.914;2023-04-28T12:50:37;101378.75;;;23.15;29.52
2401;BME280;1211;43.200;27.914;2023-04-28T12:53:04;101377.91;;;23.11;29.27
2401;BME280;1211;43.200;27.914;2023-04-28T12:55:31;101365.56;;;23.61;29.07
2401;BME280;1211;43.200;27.914;2023-04-28T12:57:58;101364.28;;;24.44;27.78
2401;BME280;1211;43.200;27.914;2023-04-28T13:00:24;101363.53;;;24.29;28.03
2401;BME280;1211;43.200;27.914;2023-04-28T13:02:51;101369.53;;;23.32;29.22
2401;BME280;1211;43.200;27.914;2023-04-28T13:05:19;101383.75;;;22.63;29.44
2401;BME280;1211;43.200;27.914;2023-04-28T13:07:46;101379.44;;;22.83;29.53
2401;BME280;1211;43.200;27.914;2023-04-28T13:10:13;101376.09;;;22.64;29.47
2401;BME280;1211;43.200;27.914;2023-04-28T13:12:40;101360.28;;;23.35;28.91
2401;BME280;1211;43.200;27.914;2023-04-28T13:15:07;101358.69;;;23.34;28.80